createdAt,value
2023-04-18T00:00:57.256Z,36.50
2023-04-18T00:03:24.885Z,28.63
2023-04-18T00:05:52.419Z,35.13
2023-04-18T00:08:19.708Z,35.90
2023-04-18T00:10:46.893Z,35.10
2023-04-18T00:13:14.256Z,31.30
2023-04-18T00:15:42.900Z,31.42
2023-04-18T00:18:10.547Z,30.80
2023-04-18T00:20:38.975Z,30.42
2023-04-18T00:23:06.310Z,29.90
2023-04-18T00:25:33.549Z,25.88
2023-04-18T00:28:00.848Z,32.95
2023-04-18T00:30:28.229Z,29.23
2023-04-18T00:32:56.822Z,26.98
2023-04-18T00:35:25.201Z,25.47
2023-04-18T00:37:52.509Z,27.75
2023-04-18T00:40:19.789Z,26.92
2023-04-18T00:42:47.272Z,23.27
2023-04-18T00:45:14.767Z,25.25
2023-04-18T00:47:42.132Z,24.60
2023-04-18T00:50:10.632Z,22.70
2023-04-18T00:52:37.970Z,23.83
2023-04-18T00:55:07.110Z,22.90
2023-04-18T00:57:34.548Z,23.17
2023-04-18T01:00:08.654Z,21.02
2023-04-18T01:02:36.175Z,20.63
2023-04-18T01:05:04.546Z,21.85
2023-04-18T01:07:33.445Z,18.77
2023-04-18T01:10:01.058Z,17.73
2023-04-18T01:12:28.373Z,20.55
2023-04-18T01:14:55.584Z,21.15
2023-04-18T01:17:23.354Z,17.75
2023-04-18T01:19:51.947Z,18.20
2023-04-18T01:22:20.427Z,20.42
2023-04-18T01:24:47.671Z,17.13
2023-04-18T01:27:17.500Z,17.50
2023-04-18T01:29:44.748Z,15.30
2023-04-18T01:32:12.111Z,15.20
2023-04-18T01:34:39.429Z,14.60
2023-04-18T01:37:06.673Z,16.58
2023-04-18T01:39:33.947Z,14.30
2023-04-18T01:42:01.963Z,13.75
2023-04-18T01:44:29.249Z,15.27
2023-04-18T01:46:56.500Z,15.30
2023-04-18T01:49:25.170Z,16.77
2023-04-18T01:51:52.495Z,17.33
2023-04-18T01:54:22.001Z,20.40
2023-04-18T01:56:49.218Z,15.48
2023-04-18T01:59:17.039Z,16.02
2023-04-18T02:01:45.075Z,17.95
2023-04-18T02:04:12.585Z,20.35
2023-04-18T02:06:39.996Z,15.18
2023-04-18T02:09:07.212Z,16.70
2023-04-18T02:11:34.457Z,18.70
2023-04-18T02:14:03.488Z,15.80
2023-04-18T02:16:30.843Z,19.48
2023-04-18T02:18:58.152Z,16.45
2023-04-18T02:21:25.481Z,18.23
2023-04-18T02:23:52.776Z,17.67
2023-04-18T02:26:22.348Z,17.63
2023-04-18T02:28:49.578Z,18.00
2023-04-18T02:31:17.252Z,18.98
2023-04-18T02:33:45.387Z,18.90
2023-04-18T02:36:13.031Z,15.45
2023-04-18T02:38:40.396Z,18.58
2023-04-18T02:41:07.928Z,19.58
2023-04-18T02:43:35.124Z,16.70
2023-04-18T02:46:03.642Z,17.37
2023-04-18T02:48:30.998Z,19.20
2023-04-18T02:51:08.524Z,18.55
2023-04-18T02:53:38.004Z,16.92
2023-04-18T02:56:06.031Z,17.88
2023-04-18T02:58:58.914Z,19.75
2023-04-18T03:01:52.049Z,18.23
2023-04-18T03:04:21.929Z,18.45
2023-04-18T03:06:57.881Z,18.65
2023-04-18T03:09:25.845Z,17.60
2023-04-18T03:11:58.482Z,17.55
2023-04-18T03:14:28.182Z,16.10
2023-04-18T03:16:56.481Z,24.88
2023-04-18T03:19:28.558Z,17.05
2023-04-18T03:21:58.660Z,18.98
2023-04-18T03:24:25.967Z,17.45
2023-04-18T03:26:59.710Z,18.48
2023-04-18T03:29:27.527Z,21.60
2023-04-18T03:31:54.746Z,17.13
2023-04-18T03:34:22.064Z,19.60
2023-04-18T03:36:49.817Z,20.42
2023-04-18T03:39:17.674Z,20.67
2023-04-18T03:41:45.038Z,17.92
2023-04-18T03:44:12.735Z,16.30
2023-04-18T03:46:42.073Z,33.67
2023-04-18T03:49:10.623Z,17.90
2023-04-18T03:51:47.573Z,17.83
2023-04-18T03:54:15.542Z,18.70
2023-04-18T03:56:43.209Z,19.08
2023-04-18T03:59:10.913Z,18.13
2023-04-18T04:01:41.171Z,18.90
2023-04-18T04:04:09.329Z,18.42
2023-04-18T04:06:36.851Z,16.20
2023-04-18T04:09:04.292Z,19.15
2023-04-18T04:11:31.636Z,21.77
2023-04-18T04:13:58.891Z,16.67
2023-04-18T04:16:32.576Z,18.65
2023-04-18T04:19:00.686Z,20.05
2023-04-18T04:21:35.815Z,18.85
2023-04-18T04:24:03.524Z,21.83
2023-04-18T04:26:36.290Z,20.92
2023-04-18T04:29:13.808Z,17.92
2023-04-18T04:31:42.829Z,22.73
2023-04-18T04:34:10.114Z,20.83
2023-04-18T04:36:38.255Z,22.98
2023-04-18T04:39:08.683Z,18.67
2023-04-18T04:41:53.449Z,22.23
2023-04-18T04:44:25.835Z,23.20
2023-04-18T04:46:54.576Z,20.88
2023-04-18T04:49:25.930Z,21.83
2023-04-18T04:51:53.171Z,24.75
2023-04-18T04:54:20.891Z,22.98
2023-04-18T04:56:48.443Z,20.75
2023-04-18T04:59:16.383Z,21.90
2023-04-18T05:01:46.728Z,20.45
2023-04-18T05:04:15.691Z,22.48
2023-04-18T05:06:43.149Z,21.80
2023-04-18T05:09:10.442Z,22.52
2023-04-18T05:11:37.668Z,22.73
2023-04-18T05:14:04.917Z,22.85
2023-04-18T05:16:32.257Z,20.75
2023-04-18T05:18:59.721Z,20.67
2023-04-18T05:21:28.694Z,21.92
2023-04-18T05:23:56.331Z,21.50
2023-04-18T05:26:24.358Z,20.33
2023-04-18T05:28:51.649Z,19.48
2023-04-18T05:31:18.992Z,22.20
2023-04-18T05:33:46.263Z,24.42
2023-04-18T05:36:13.538Z,21.35
2023-04-18T05:38:40.782Z,21.05
2023-04-18T05:41:08.040Z,21.20
2023-04-18T05:43:35.302Z,26.08
2023-04-18T05:46:02.564Z,18.50
2023-04-18T05:48:29.805Z,20.40
2023-04-18T05:50:57.836Z,22.35
2023-04-18T05:53:25.204Z,21.02
2023-04-18T05:55:52.515Z,23.83
2023-04-18T05:58:19.819Z,20.98
2023-04-18T06:00:48.242Z,24.70
2023-04-18T06:03:15.896Z,19.23
2023-04-18T06:05:43.731Z,21.70
2023-04-18T06:08:11.102Z,23.02
2023-04-18T06:10:39.259Z,23.08
2023-04-18T06:13:06.657Z,21.20
2023-04-18T06:15:35.365Z,19.55
2023-04-18T06:18:02.775Z,21.70
2023-04-18T06:20:30.197Z,20.63
2023-04-18T06:22:57.597Z,22.60
2023-04-18T06:25:25.892Z,19.77
2023-04-18T06:27:53.178Z,19.93
2023-04-18T06:30:22.013Z,18.95
2023-04-18T06:32:49.586Z,22.42
2023-04-18T06:35:17.090Z,23.73
2023-04-18T06:37:44.933Z,21.70
2023-04-18T06:40:12.617Z,22.90
2023-04-18T06:42:39.956Z,17.90
2023-04-18T06:45:07.617Z,22.23
2023-04-18T06:47:34.888Z,23.52
2023-04-18T06:50:02.206Z,22.23
2023-04-18T06:52:29.567Z,21.35
2023-04-18T06:54:56.770Z,18.23
2023-04-18T06:57:24.065Z,21.13
2023-04-18T06:59:51.309Z,18.92
2023-04-18T07:02:18.738Z,20.67
2023-04-18T07:04:46.186Z,19.40
2023-04-18T07:07:13.454Z,26.45
2023-04-18T07:09:40.814Z,21.67
2023-04-18T07:12:08.166Z,18.17
2023-04-18T07:14:35.515Z,18.23
2023-04-18T07:17:02.961Z,22.08
2023-04-18T07:19:30.334Z,20.20
2023-04-18T07:21:57.726Z,24.02
2023-04-18T07:24:25.102Z,18.23
2023-04-18T07:26:54.799Z,20.98
2023-04-18T07:29:22.391Z,17.08
2023-04-18T07:31:49.829Z,21.95
2023-04-18T07:34:17.853Z,19.20
2023-04-18T07:36:45.256Z,20.00
2023-04-18T07:39:12.441Z,17.88
2023-04-18T07:41:39.697Z,17.88
2023-04-18T07:44:07.370Z,14.00
2023-04-18T07:46:34.864Z,19.60
2023-04-18T07:49:04.967Z,18.25
2023-04-18T07:51:32.371Z,17.23
2023-04-18T07:53:59.885Z,17.58
2023-04-18T07:56:27.588Z,17.95
2023-04-18T07:58:54.806Z,16.70
2023-04-18T08:01:24.302Z,17.05
2023-04-18T08:03:53.214Z,16.52
2023-04-18T08:06:21.404Z,17.35
2023-04-18T08:08:48.769Z,14.90
2023-04-18T08:11:15.984Z,15.18
2023-04-18T08:13:43.367Z,17.00
2023-04-18T08:16:10.763Z,14.07
2023-04-18T08:18:38.019Z,13.75
2023-04-18T08:21:05.610Z,16.20
2023-04-18T08:23:32.895Z,15.63
2023-04-18T08:26:00.215Z,16.35
2023-04-18T08:28:27.449Z,17.77
2023-04-18T08:30:56.473Z,16.25
2023-04-18T08:33:24.307Z,17.92
2023-04-18T08:35:51.901Z,17.15
2023-04-18T08:38:19.380Z,16.92
2023-04-18T08:40:47.294Z,16.75
2023-04-18T08:43:15.649Z,14.30
2023-04-18T08:45:43.910Z,16.33
2023-04-18T08:48:17.709Z,18.80
2023-04-18T08:50:45.391Z,15.77
2023-04-18T08:53:12.757Z,15.70
2023-04-18T08:55:40.615Z,15.68
2023-04-18T08:58:08.053Z,13.23
2023-04-18T09:00:35.373Z,14.98
2023-04-18T09:03:04.043Z,15.38
2023-04-18T09:05:31.541Z,16.55
2023-04-18T09:07:58.884Z,15.20
2023-04-18T09:10:30.920Z,14.30
2023-04-18T09:12:59.052Z,14.50
2023-04-18T09:15:27.294Z,16.13
2023-04-18T09:17:56.358Z,15.65
2023-04-18T09:22:52.079Z,15.88
2023-04-18T09:25:39.873Z,16.47
2023-04-18T09:28:24.557Z,17.85
2023-04-18T09:30:52.784Z,15.93
2023-04-18T09:33:28.244Z,13.20
2023-04-18T09:35:56.124Z,15.57
2023-04-18T09:38:39.702Z,15.95
2023-04-18T09:41:10.667Z,18.10
2023-04-18T09:43:38.114Z,15.32
2023-04-18T09:46:05.709Z,18.60
2023-04-18T09:48:33.086Z,15.90
2023-04-18T09:51:02.098Z,15.05
2023-04-18T09:53:30.008Z,12.95
2023-04-18T09:55:58.317Z,13.60
2023-04-18T09:58:26.909Z,14.73
2023-04-18T10:00:54.944Z,14.50
2023-04-18T10:03:23.436Z,16.10
2023-04-18T10:05:51.221Z,15.73
2023-04-18T10:08:19.090Z,16.85
2023-04-18T10:10:47.114Z,14.93
2023-04-18T10:13:14.703Z,13.57
2023-04-18T10:15:44.094Z,14.55
2023-04-18T10:18:15.376Z,14.10
2023-04-18T10:20:44.437Z,14.85
2023-04-18T10:23:29.922Z,16.10
2023-04-18T10:25:57.877Z,13.13
2023-04-18T10:28:26.517Z,17.35
2023-04-18T10:30:56.275Z,14.50
2023-04-18T10:33:33.485Z,16.40
2023-04-18T10:36:01.074Z,16.17
2023-04-18T10:38:28.707Z,15.00
2023-04-18T10:41:14.987Z,21.95
2023-04-18T10:44:01.316Z,14.65
2023-04-18T10:46:32.278Z,13.38
2023-04-18T10:49:18.831Z,12.05
2023-04-18T10:51:46.478Z,12.27
2023-04-18T10:54:19.560Z,15.20
2023-04-18T10:56:54.166Z,15.63
2023-04-18T10:59:23.800Z,12.85
2023-04-18T11:01:55.404Z,13.50
2023-04-18T11:04:22.768Z,13.05
2023-04-18T11:06:51.086Z,11.68
2023-04-18T11:09:18.346Z,12.47
2023-04-18T11:11:45.722Z,13.23
2023-04-18T11:14:13.269Z,12.32
2023-04-18T11:16:41.094Z,14.80
2023-04-18T11:19:22.029Z,12.13
2023-04-18T11:21:49.560Z,11.73
2023-04-18T11:24:25.997Z,11.40
2023-04-18T11:26:56.447Z,12.68
2023-04-18T11:29:23.792Z,12.15
2023-04-18T11:31:52.839Z,14.82
2023-04-18T11:34:21.260Z,14.68
2023-04-18T11:36:51.757Z,14.77
2023-04-18T11:39:19.625Z,12.18
2023-04-18T11:41:50.534Z,12.75
2023-04-18T11:44:18.652Z,13.75
2023-04-18T11:46:46.068Z,12.93
2023-04-18T11:49:32.766Z,14.80
2023-04-18T11:52:01.336Z,15.68
2023-04-18T11:54:38.816Z,17.35
2023-04-18T11:57:06.645Z,14.95
2023-04-18T11:59:34.029Z,15.40
2023-04-18T12:02:14.929Z,15.20
2023-04-18T12:04:58.736Z,15.75
2023-04-18T12:07:32.922Z,13.30
2023-04-18T12:10:00.356Z,14.68
2023-04-18T12:12:27.572Z,14.57
2023-04-18T12:15:08.580Z,17.50
2023-04-18T12:17:37.659Z,19.17
2023-04-18T12:20:05.673Z,17.20
2023-04-18T12:22:49.630Z,17.83
2023-04-18T12:25:27.138Z,16.65
2023-04-18T12:28:05.017Z,17.05
2023-04-18T12:30:36.017Z,18.13
2023-04-18T12:33:05.164Z,14.82
2023-04-18T12:35:32.964Z,18.77
2023-04-18T12:38:01.839Z,19.60
2023-04-18T12:40:30.159Z,20.60
2023-04-18T12:42:57.454Z,17.13
2023-04-18T12:45:25.104Z,19.55
2023-04-18T12:47:53.777Z,15.05
2023-04-18T12:50:22.454Z,19.70
2023-04-18T12:52:49.798Z,19.85
2023-04-18T12:55:17.036Z,18.65
2023-04-18T12:57:44.529Z,19.65
2023-04-18T13:00:13.464Z,19.42
2023-04-18T13:05:09.941Z,17.23
2023-04-18T13:07:38.061Z,21.77
2023-04-18T13:10:05.687Z,21.17
2023-04-18T13:12:32.903Z,18.77
2023-04-18T13:15:00.256Z,20.67
2023-04-18T13:17:27.579Z,22.08
2023-04-18T13:19:54.859Z,19.33
2023-04-18T13:22:22.442Z,17.85
2023-04-18T13:24:51.779Z,21.40
2023-04-18T13:27:19.288Z,20.42
2023-04-18T13:29:46.773Z,24.40
2023-04-18T13:32:14.154Z,20.10
2023-04-18T13:34:46.046Z,23.30
2023-04-18T13:37:13.543Z,23.75
2023-04-18T13:39:40.971Z,20.60
2023-04-18T13:42:08.624Z,23.38
2023-04-18T13:44:36.717Z,24.00
2023-04-18T13:47:05.017Z,21.00
2023-04-18T13:49:32.961Z,23.13
2023-04-18T13:52:00.655Z,25.52
2023-04-18T13:54:28.427Z,19.90
2023-04-18T13:56:57.290Z,18.70
2023-04-18T13:59:27.558Z,24.90
2023-04-18T14:01:55.383Z,21.15
2023-04-18T14:04:23.056Z,21.23
2023-04-18T14:06:50.891Z,22.27
2023-04-18T14:09:18.190Z,20.48
2023-04-18T14:11:45.792Z,20.80
2023-04-18T14:14:13.024Z,19.02
2023-04-18T14:16:40.278Z,21.65
2023-04-18T14:19:07.704Z,19.45
2023-04-18T14:21:34.975Z,19.83
2023-04-18T14:24:02.300Z,20.38
2023-04-18T14:26:29.533Z,21.27
2023-04-18T14:28:57.035Z,19.10
2023-04-18T14:31:24.470Z,21.63
2023-04-18T14:33:52.186Z,18.08
2023-04-18T14:36:19.635Z,20.83
2023-04-18T14:38:50.175Z,18.70
2023-04-18T14:41:17.501Z,18.63
2023-04-18T14:43:44.767Z,20.48
2023-04-18T14:46:13.182Z,18.23
2023-04-18T14:48:40.513Z,24.10
2023-04-18T14:51:07.928Z,18.27
2023-04-18T14:53:35.266Z,18.85
2023-04-18T14:56:02.556Z,19.90
2023-04-18T14:58:29.898Z,18.27
2023-04-18T15:00:57.182Z,20.77
2023-04-18T15:03:24.520Z,19.50
2023-04-18T15:05:53.219Z,18.33
2023-04-18T15:08:20.714Z,19.63
2023-04-18T15:10:48.005Z,21.13
2023-04-18T15:13:15.764Z,18.52
2023-04-18T15:15:43.076Z,18.90
2023-04-18T15:18:11.136Z,24.70
2023-04-18T15:20:39.501Z,19.80
2023-04-18T15:23:07.039Z,20.20
2023-04-18T15:25:35.112Z,19.65
2023-04-18T15:28:02.366Z,19.60
2023-04-18T15:30:29.585Z,19.90
2023-04-18T15:32:57.217Z,19.70
2023-04-18T15:35:24.627Z,21.05
2023-04-18T15:37:53.734Z,18.73
2023-04-18T15:40:20.985Z,19.02
2023-04-18T15:42:49.575Z,18.35
2023-04-18T15:45:16.966Z,19.48
2023-04-18T15:47:44.332Z,17.80
2023-04-18T15:50:12.166Z,18.00
2023-04-18T15:52:41.494Z,17.25
2023-04-18T15:55:10.871Z,20.48
2023-04-18T15:57:38.099Z,17.23
2023-04-18T16:00:10.180Z,18.42
2023-04-18T16:02:37.530Z,17.45
2023-04-18T16:05:05.441Z,15.80
2023-04-18T16:07:32.772Z,15.60
2023-04-18T16:10:02.734Z,17.88
2023-04-18T16:12:30.245Z,14.30
2023-04-18T16:14:57.496Z,19.25
2023-04-18T16:17:24.782Z,16.92
2023-04-18T16:19:52.205Z,18.60
2023-04-18T16:22:19.487Z,17.27
2023-04-18T16:24:46.676Z,15.98
2023-04-18T16:27:13.988Z,18.17
2023-04-18T16:29:41.289Z,17.60
2023-04-18T16:32:08.771Z,16.92
2023-04-18T16:34:36.050Z,17.50
2023-04-18T16:37:03.390Z,17.58
2023-04-18T16:39:31.163Z,19.20
2023-04-18T16:41:58.483Z,17.05
2023-04-18T16:44:26.056Z,16.20
2023-04-18T16:46:53.410Z,15.15
2023-04-18T16:49:20.791Z,17.60
2023-04-18T16:51:48.989Z,16.42
2023-04-18T16:54:16.477Z,16.75
2023-04-18T16:56:44.980Z,17.35
2023-04-18T16:59:12.368Z,16.45
2023-04-18T17:01:39.627Z,17.27
2023-04-18T17:04:07.093Z,16.65
2023-04-18T17:06:34.570Z,16.27
2023-04-18T17:09:02.089Z,17.00
2023-04-18T17:11:30.096Z,16.55
2023-04-18T17:13:57.349Z,17.80
2023-04-18T17:16:24.682Z,13.70
2023-04-18T17:18:51.937Z,14.68
2023-04-18T17:21:19.150Z,18.20
2023-04-18T17:23:47.646Z,20.35
2023-04-18T17:26:14.883Z,25.23
2023-04-18T17:28:42.320Z,13.43
2023-04-18T17:31:09.629Z,14.18
2023-04-18T17:33:37.125Z,15.45
2023-04-18T17:36:06.356Z,22.92
2023-04-18T17:38:33.791Z,16.38
2023-04-18T17:41:01.963Z,16.35
2023-04-18T17:43:29.533Z,17.92
2023-04-18T17:45:57.120Z,18.58
2023-04-18T17:48:24.451Z,17.55
2023-04-18T17:50:51.686Z,14.70
2023-04-18T17:53:19.123Z,17.65
2023-04-18T17:55:48.877Z,16.27
2023-04-18T17:58:16.950Z,15.32
2023-04-18T18:00:44.261Z,16.88
2023-04-18T18:03:14.041Z,15.07
2023-04-18T18:05:42.081Z,16.80
2023-04-18T18:08:09.426Z,17.48
2023-04-18T18:10:36.673Z,15.52
2023-04-18T18:13:03.976Z,14.98
2023-04-18T18:15:31.603Z,16.65
2023-04-18T18:17:59.056Z,13.65
2023-04-18T18:20:27.391Z,14.38
2023-04-18T18:22:55.096Z,14.40
2023-04-18T18:25:22.515Z,15.73
2023-04-18T18:27:51.336Z,16.23
2023-04-18T18:30:19.155Z,18.67
2023-04-18T18:32:46.592Z,14.57
2023-04-18T18:35:13.951Z,16.88
2023-04-18T18:37:41.538Z,15.23
2023-04-18T18:40:09.356Z,14.45
2023-04-18T18:42:36.992Z,18.67
2023-04-18T18:45:04.566Z,16.52
2023-04-18T18:47:32.026Z,14.88
2023-04-18T18:49:59.314Z,16.85
2023-04-18T18:52:31.011Z,17.60
2023-04-18T18:54:58.451Z,16.08
2023-04-18T18:57:26.106Z,16.42
2023-04-18T18:59:55.705Z,17.42
2023-04-18T19:02:23.468Z,14.40
2023-04-18T19:04:50.954Z,18.27
2023-04-18T19:07:18.372Z,17.75
2023-04-18T19:09:46.449Z,16.77
2023-04-18T19:12:13.753Z,15.90
2023-04-18T19:14:42.375Z,16.88
2023-04-18T19:17:09.842Z,16.88
2023-04-18T19:19:37.096Z,15.48
2023-04-18T19:22:06.005Z,16.33
2023-04-18T19:24:34.842Z,15.88
2023-04-18T19:27:02.965Z,15.90
2023-04-18T19:29:32.557Z,13.95
2023-04-18T19:32:00.229Z,16.55
2023-04-18T19:34:27.477Z,18.90
2023-04-18T19:36:54.685Z,17.23
2023-04-18T19:39:22.084Z,16.20
2023-04-18T19:41:49.365Z,21.50
2023-04-18T19:44:16.816Z,17.05
2023-04-18T19:46:44.123Z,17.40
2023-04-18T19:49:11.473Z,18.60
2023-04-18T19:51:40.023Z,18.35
2023-04-18T19:54:07.471Z,21.25
2023-04-18T19:56:34.713Z,18.67
2023-04-18T19:59:02.412Z,18.17
2023-04-18T20:01:29.887Z,18.15
2023-04-18T20:04:00.049Z,18.55
2023-04-18T20:06:27.697Z,19.13
2023-04-18T20:08:55.057Z,18.23
2023-04-18T20:11:22.544Z,17.20
2023-04-18T20:13:52.097Z,19.13
2023-04-18T20:16:19.356Z,17.70
2023-04-18T20:18:47.523Z,21.92
2023-04-18T20:21:14.888Z,18.25
2023-04-18T20:23:42.820Z,19.73
2023-04-18T20:26:10.240Z,20.42
2023-04-18T20:28:37.907Z,19.02
2023-04-18T20:31:05.419Z,18.88
2023-04-18T20:33:33.072Z,22.05
2023-04-18T20:36:00.373Z,20.42
2023-04-18T20:38:29.689Z,18.90
2023-04-18T20:41:00.827Z,21.33
2023-04-18T20:43:28.155Z,19.83
2023-04-18T20:45:57.782Z,19.33
2023-04-18T20:48:25.495Z,19.90
2023-04-18T20:50:52.938Z,16.88
2023-04-18T20:53:21.278Z,16.83
2023-04-18T20:55:49.017Z,16.63
2023-04-18T20:58:16.791Z,17.67
2023-04-18T21:00:48.308Z,19.13
2023-04-18T21:03:16.249Z,18.30
2023-04-18T21:05:43.945Z,19.13
2023-04-18T21:08:11.511Z,19.88
2023-04-18T21:10:38.867Z,16.00
2023-04-18T21:13:06.206Z,17.65
2023-04-18T21:15:33.465Z,16.70
2023-04-18T21:18:00.772Z,15.10
2023-04-18T21:20:28.084Z,18.42
2023-04-18T21:22:55.363Z,17.05
2023-04-18T21:25:22.614Z,18.30
2023-04-18T21:27:50.841Z,17.33
2023-04-18T21:30:18.316Z,19.30
2023-04-18T21:32:47.156Z,14.65
2023-04-18T21:35:16.058Z,12.88
2023-04-18T21:37:44.495Z,17.70
2023-04-18T21:40:11.953Z,15.85
2023-04-18T21:42:39.202Z,17.42
2023-04-18T21:45:06.726Z,16.35
2023-04-18T21:47:34.147Z,17.48
2023-04-18T21:50:01.644Z,17.48
2023-04-18T21:52:28.875Z,17.98
2023-04-18T21:54:56.198Z,14.32
2023-04-18T21:57:23.470Z,16.67
2023-04-18T21:59:50.831Z,15.40
2023-04-18T22:02:18.130Z,16.55
2023-04-18T22:04:45.520Z,15.00
2023-04-18T22:07:13.472Z,16.00
2023-04-18T22:09:40.701Z,14.88
2023-04-18T22:12:08.325Z,19.67
2023-04-18T22:14:35.582Z,13.73
2023-04-18T22:17:05.848Z,14.70
2023-04-18T22:19:33.272Z,16.83
2023-04-18T22:22:00.552Z,15.38
2023-04-18T22:24:27.727Z,16.83
2023-04-18T22:26:54.978Z,15.18
2023-04-18T22:29:22.181Z,13.48
2023-04-18T22:31:49.444Z,14.65
2023-04-18T22:34:16.828Z,15.05
2023-04-18T22:36:45.546Z,15.82
2023-04-18T22:39:12.942Z,13.73
2023-04-18T22:41:40.381Z,15.18
2023-04-18T22:44:07.689Z,14.68
2023-04-18T22:46:34.919Z,16.92
2023-04-18T22:49:02.337Z,15.27
2023-04-18T22:51:29.725Z,15.55
2023-04-18T22:53:57.036Z,17.30
2023-04-18T22:56:24.237Z,15.70
2023-04-18T22:58:51.483Z,13.75
2023-04-18T23:01:18.833Z,17.75
2023-04-18T23:03:46.472Z,13.43
2023-04-18T23:06:13.769Z,15.07
2023-04-18T23:08:40.964Z,15.00
2023-04-18T23:11:08.203Z,13.25
2023-04-18T23:13:35.437Z,15.85
2023-04-18T23:16:02.861Z,14.90
2023-04-18T23:18:31.246Z,12.45
2023-04-18T23:21:00.189Z,12.73
2023-04-18T23:23:27.629Z,16.58
2023-04-18T23:25:55.853Z,14.20
2023-04-18T23:28:23.261Z,15.65
2023-04-18T23:30:50.671Z,26.92
2023-04-18T23:33:17.900Z,15.32
2023-04-18T23:35:45.140Z,16.05
2023-04-18T23:38:12.358Z,15.63
2023-04-18T23:40:39.594Z,14.02
2023-04-18T23:43:06.765Z,14.05
2023-04-18T23:45:34.002Z,13.95
2023-04-18T23:48:01.432Z,14.65
2023-04-18T23:50:28.717Z,15.10
2023-04-18T23:52:56.015Z,15.43
2023-04-18T23:55:23.321Z,15.55
2023-04-18T23:57:50.676Z,15.60
